Terminal Aerodrome Forecast
Issued by NWS Buffalo, NY

Home | Current Version | Previous Version | Text Only | Print | Product List | Glossary On
Versions: 1 2 3 4 5 6 7 8 9 10 11 12 13 14 15 16 17 18 19 20 21 22 23 24 25
000
FTUS41 KBUF 191120
TAFROC
TAF
KROC 191120Z 1912/2012 22010G16KT P6SM SKC
     FM191400 24014G22KT P6SM SCT250
     FM191900 26018G26KT P6SM SCT050
     FM192300 26010KT P6SM SKC
     FM200300 27006KT P6SM SKC=

USA.gov is the U.S. government's official web portal to all federal, state and local government web resources and services.